createdAt,value
2023-06-25T00:01:18.891Z,63.71
2023-06-25T00:03:46.621Z,63.85
2023-06-25T00:06:13.678Z,63.88
2023-06-25T00:08:41.388Z,63.78
2023-06-25T00:11:08.332Z,63.68
2023-06-25T00:13:35.405Z,63.47
2023-06-25T00:16:02.339Z,63.48
2023-06-25T00:18:29.768Z,63.25
2023-06-25T00:20:56.604Z,63.24
2023-06-25T00:23:25.598Z,63.21
2023-06-25T00:25:52.543Z,63.25
2023-06-25T00:28:19.694Z,63.41
2023-06-25T00:30:46.669Z,63.41
2023-06-25T00:33:13.684Z,63.64
2023-06-25T00:35:50.666Z,63.59
2023-06-25T00:38:18.461Z,63.84
2023-06-25T00:40:45.594Z,63.86
2023-06-25T00:43:15.712Z,64.00
2023-06-25T00:45:43.795Z,64.13
2023-06-25T00:48:10.822Z,64.27
2023-06-25T00:50:37.977Z,64.49
2023-06-25T00:53:09.449Z,64.52
2023-06-25T00:55:37.843Z,64.50
2023-06-25T00:58:05.691Z,64.59
2023-06-25T01:00:34.284Z,64.36
2023-06-25T01:03:08.177Z,64.37
2023-06-25T01:05:40.637Z,64.20
2023-06-25T01:08:11.261Z,64.10
2023-06-25T01:10:40.278Z,64.02
2023-06-25T01:13:07.436Z,64.07
2023-06-25T01:15:36.880Z,63.95
2023-06-25T01:18:05.490Z,64.01
2023-06-25T01:20:32.740Z,63.94
2023-06-25T01:22:59.653Z,63.90
2023-06-25T01:25:26.941Z,64.13
2023-06-25T01:27:55.123Z,64.06
2023-06-25T01:30:26.047Z,64.13
2023-06-25T01:32:53.440Z,64.19
2023-06-25T01:35:21.222Z,64.23
2023-06-25T01:37:48.217Z,64.22
2023-06-25T01:40:15.388Z,64.34
2023-06-25T01:42:43.868Z,64.45
2023-06-25T01:45:12.381Z,64.50
2023-06-25T01:47:40.082Z,64.42
2023-06-25T01:50:07.665Z,64.41
2023-06-25T01:52:35.099Z,64.39
2023-06-25T01:55:02.367Z,64.61
2023-06-25T01:57:30.017Z,64.61
2023-06-25T01:59:57.075Z,64.77
2023-06-25T02:02:24.169Z,64.66
2023-06-25T02:04:51.252Z,64.85
2023-06-25T02:07:18.235Z,64.75
2023-06-25T02:09:45.551Z,64.76
2023-06-25T02:12:12.612Z,64.90
2023-06-25T02:14:39.629Z,64.98
2023-06-25T02:17:06.376Z,64.92
2023-06-25T02:19:34.253Z,65.14
2023-06-25T02:22:01.334Z,65.08
2023-06-25T02:24:28.348Z,65.11
2023-06-25T02:26:56.221Z,65.07
2023-06-25T02:29:23.270Z,65.08
2023-06-25T02:31:50.311Z,65.07
2023-06-25T02:34:17.472Z,65.20
2023-06-25T02:36:44.506Z,65.12
2023-06-25T02:39:11.673Z,65.06
2023-06-25T02:41:40.555Z,64.99
2023-06-25T02:44:08.120Z,64.89
2023-06-25T02:46:37.047Z,64.94
2023-06-25T02:49:05.110Z,64.90
2023-06-25T02:51:32.228Z,64.75
2023-06-25T02:53:59.467Z,64.53
2023-06-25T02:56:26.254Z,64.46
2023-06-25T02:58:53.150Z,64.38
2023-06-25T03:01:20.113Z,64.39
2023-06-25T03:03:47.976Z,64.44
2023-06-25T03:06:15.007Z,64.38
2023-06-25T03:08:44.514Z,64.40
2023-06-25T03:11:12.174Z,64.35
2023-06-25T03:13:39.336Z,64.48
2023-06-25T03:16:06.588Z,64.24
2023-06-25T03:18:33.858Z,64.16
2023-06-25T03:21:00.874Z,64.13
2023-06-25T03:23:27.860Z,64.06
2023-06-25T03:25:55.071Z,63.90
2023-06-25T03:28:27.341Z,63.84
2023-06-25T03:30:54.630Z,63.61
2023-06-25T03:33:22.173Z,63.47
2023-06-25T03:35:49.312Z,63.22
2023-06-25T03:38:16.564Z,63.07
2023-06-25T03:40:43.934Z,63.18
2023-06-25T03:43:11.783Z,63.41
2023-06-25T03:45:39.081Z,63.66
2023-06-25T03:48:06.878Z,63.14
2023-06-25T03:50:34.175Z,62.37
2023-06-25T03:53:01.603Z,61.75
2023-06-25T03:55:30.184Z,60.93
2023-06-25T03:57:57.645Z,60.07
2023-06-25T04:00:25.187Z,59.47
2023-06-25T04:02:52.566Z,59.18
2023-06-25T04:05:19.618Z,59.18
2023-06-25T04:07:48.210Z,58.59
2023-06-25T04:10:15.970Z,58.11
2023-06-25T04:12:45.358Z,57.89
2023-06-25T04:15:12.367Z,57.40
2023-06-25T04:17:40.598Z,57.13
2023-06-25T04:20:09.069Z,56.93
2023-06-25T04:22:37.140Z,56.89
2023-06-25T04:25:05.091Z,57.18
2023-06-25T04:27:32.674Z,57.16
2023-06-25T04:29:59.706Z,57.77
2023-06-25T04:32:27.804Z,58.35
2023-06-25T04:34:54.721Z,58.60
2023-06-25T04:37:22.075Z,58.80
2023-06-25T04:39:49.633Z,59.04
2023-06-25T04:42:16.785Z,59.16
2023-06-25T04:44:43.625Z,59.37
2023-06-25T04:47:10.674Z,59.38
2023-06-25T04:49:37.823Z,59.36
2023-06-25T04:52:06.199Z,59.27
2023-06-25T04:54:33.244Z,59.00
2023-06-25T04:57:00.087Z,58.80
2023-06-25T04:59:28.283Z,58.59
2023-06-25T05:01:55.749Z,58.16
2023-06-25T05:04:22.668Z,57.99
2023-06-25T05:06:49.865Z,57.86
2023-06-25T05:09:16.857Z,57.80
2023-06-25T05:11:43.819Z,57.65
2023-06-25T05:14:11.085Z,57.14
2023-06-25T05:16:38.104Z,56.42
2023-06-25T05:19:05.044Z,55.74
2023-06-25T05:21:32.103Z,54.98
2023-06-25T05:24:00.770Z,53.99
2023-06-25T05:26:28.442Z,53.27
2023-06-25T05:28:55.509Z,52.20
2023-06-25T05:31:22.667Z,50.95
2023-06-25T05:33:50.002Z,49.91
2023-06-25T05:36:17.031Z,49.51
2023-06-25T05:38:43.993Z,49.17
2023-06-25T05:41:11.773Z,48.99
2023-06-25T05:43:39.506Z,49.20
2023-06-25T05:46:06.557Z,49.27
2023-06-25T05:48:34.171Z,49.43
2023-06-25T05:51:01.264Z,49.42
2023-06-25T05:53:38.240Z,49.56
2023-06-25T05:56:05.803Z,49.56
2023-06-25T05:58:34.698Z,49.01
2023-06-25T06:01:02.270Z,48.78
2023-06-25T06:03:29.530Z,48.69
2023-06-25T06:05:57.678Z,48.37
2023-06-25T06:08:25.024Z,48.07
2023-06-25T06:10:52.279Z,47.58
2023-06-25T06:13:19.222Z,47.88
2023-06-25T06:15:46.290Z,48.01
2023-06-25T06:18:13.318Z,48.04
2023-06-25T06:20:40.239Z,48.09
2023-06-25T06:23:07.004Z,47.97
2023-06-25T06:25:35.315Z,47.85
2023-06-25T06:28:03.143Z,47.59
2023-06-25T06:30:30.458Z,47.48
2023-06-25T06:32:57.706Z,47.33
2023-06-25T06:35:24.598Z,46.78
2023-06-25T06:37:51.547Z,46.86
2023-06-25T06:40:18.687Z,47.20
2023-06-25T06:42:45.821Z,47.08
2023-06-25T06:45:12.793Z,46.69
2023-06-25T06:47:40.288Z,47.37
2023-06-25T06:50:07.915Z,47.81
2023-06-25T06:52:35.076Z,47.93
2023-06-25T06:55:01.859Z,48.00
2023-06-25T06:57:29.049Z,48.35
2023-06-25T06:59:56.195Z,48.93
2023-06-25T07:02:23.563Z,49.12
2023-06-25T07:04:51.208Z,49.14
2023-06-25T07:07:18.530Z,49.41
2023-06-25T07:09:52.375Z,49.73
2023-06-25T07:12:19.621Z,49.48
2023-06-25T07:14:46.569Z,49.62
2023-06-25T07:17:13.509Z,49.78
2023-06-25T07:19:40.595Z,49.60
2023-06-25T07:22:07.545Z,49.59
2023-06-25T07:24:35.074Z,50.04
2023-06-25T07:27:02.107Z,50.21
2023-06-25T07:29:29.589Z,49.82
2023-06-25T07:31:56.672Z,49.73
2023-06-25T07:34:23.770Z,49.46
2023-06-25T07:36:50.817Z,49.72
2023-06-25T07:39:24.224Z,49.62
2023-06-25T07:41:50.963Z,49.46
2023-06-25T07:46:50.260Z,49.61
2023-06-25T07:49:17.225Z,49.59
2023-06-25T07:51:50.287Z,49.49
2023-06-25T07:54:17.851Z,49.52
2023-06-25T07:56:45.621Z,49.73
2023-06-25T07:59:13.821Z,49.93
2023-06-25T08:01:40.736Z,49.90
2023-06-25T08:04:08.461Z,50.11
2023-06-25T08:06:36.263Z,50.09
2023-06-25T08:09:03.919Z,50.33
2023-06-25T08:11:31.307Z,50.30
2023-06-25T08:13:58.337Z,50.20
2023-06-25T08:16:25.329Z,50.36
2023-06-25T08:18:52.420Z,50.38
2023-06-25T08:21:19.461Z,50.20
2023-06-25T08:23:46.314Z,49.55
2023-06-25T08:26:16.540Z,49.05
2023-06-25T08:28:44.609Z,48.67
2023-06-25T08:31:14.366Z,48.42
2023-06-25T08:33:41.487Z,48.32
2023-06-25T08:36:08.408Z,48.23
2023-06-25T08:38:36.304Z,48.10
2023-06-25T08:41:03.091Z,48.22
2023-06-25T08:43:30.044Z,48.29
2023-06-25T08:45:57.144Z,48.45
2023-06-25T08:48:26.975Z,48.33
2023-06-25T08:50:56.819Z,48.49
2023-06-25T08:53:28.792Z,48.35
2023-06-25T08:55:59.017Z,48.01
2023-06-25T08:58:26.167Z,48.09
2023-06-25T09:00:53.239Z,48.04
2023-06-25T09:03:20.337Z,48.09
2023-06-25T09:05:54.671Z,48.14
2023-06-25T09:08:23.017Z,48.29
2023-06-25T09:10:52.055Z,48.43
2023-06-25T09:13:23.594Z,48.44
2023-06-25T09:15:50.852Z,48.04
2023-06-25T09:18:24.359Z,48.07
2023-06-25T09:20:53.083Z,48.39
2023-06-25T09:23:23.876Z,48.31
2023-06-25T09:25:51.528Z,48.23
2023-06-25T09:28:19.348Z,47.97
2023-06-25T09:30:46.872Z,47.77
2023-06-25T09:33:14.468Z,47.72
2023-06-25T09:35:41.668Z,47.46
2023-06-25T09:38:08.837Z,47.19
2023-06-25T09:40:36.236Z,46.86
2023-06-25T09:43:06.416Z,46.75
2023-06-25T09:45:34.565Z,46.57
2023-06-25T09:48:02.195Z,46.55
2023-06-25T09:50:40.405Z,46.49
2023-06-25T09:53:08.605Z,46.53
2023-06-25T09:55:37.604Z,46.58
2023-06-25T09:58:04.975Z,46.47
2023-06-25T10:00:32.102Z,46.19
2023-06-25T10:02:59.457Z,45.97
2023-06-25T10:05:26.914Z,45.97
2023-06-25T10:07:53.862Z,45.76
2023-06-25T10:10:21.462Z,45.84
2023-06-25T10:12:50.101Z,46.21
2023-06-25T10:15:47.144Z,45.98
2023-06-25T10:18:23.058Z,46.27
2023-06-25T10:20:49.973Z,46.37
2023-06-25T10:23:27.119Z,46.22
2023-06-25T10:25:58.877Z,46.26
2023-06-25T10:28:50.927Z,46.28
2023-06-25T10:31:19.041Z,46.42
2023-06-25T10:33:46.582Z,46.51
2023-06-25T10:36:13.711Z,46.57
2023-06-25T10:38:41.059Z,46.73
2023-06-25T10:41:08.003Z,46.81
2023-06-25T10:43:37.012Z,46.85
2023-06-25T10:46:04.061Z,46.76
2023-06-25T10:48:31.614Z,46.42
2023-06-25T10:50:58.753Z,46.46
2023-06-25T10:53:25.964Z,46.52
2023-06-25T10:55:53.872Z,46.47
2023-06-25T10:58:24.938Z,46.39
2023-06-25T11:00:58.675Z,46.58
2023-06-25T11:03:26.429Z,46.29
2023-06-25T11:05:53.585Z,46.30
2023-06-25T11:08:24.475Z,45.89
2023-06-25T11:10:51.321Z,45.87
2023-06-25T11:13:18.762Z,45.97
2023-06-25T11:15:48.080Z,45.93
2023-06-25T11:18:16.039Z,46.11
2023-06-25T11:20:43.617Z,45.87
2023-06-25T11:23:11.569Z,46.01
2023-06-25T11:25:39.222Z,45.81
2023-06-25T11:28:08.749Z,45.81
2023-06-25T11:30:35.591Z,45.87
2023-06-25T11:33:11.929Z,46.06
2023-06-25T11:35:39.464Z,45.93
2023-06-25T11:38:06.638Z,46.21
2023-06-25T11:40:35.248Z,46.51
2023-06-25T11:43:02.886Z,46.42
2023-06-25T11:45:43.373Z,46.31
2023-06-25T11:48:15.018Z,46.21
2023-06-25T11:50:45.881Z,46.45
2023-06-25T11:53:12.864Z,46.44
2023-06-25T11:55:40.437Z,46.43
2023-06-25T11:58:10.971Z,46.65
2023-06-25T12:00:38.798Z,46.59
2023-06-25T12:03:07.321Z,46.58
2023-06-25T12:05:34.438Z,46.35
2023-06-25T12:08:02.443Z,46.45
2023-06-25T12:10:29.480Z,46.85
2023-06-25T12:12:56.456Z,46.97
2023-06-25T12:15:23.576Z,46.41
2023-06-25T12:17:51.050Z,46.15
2023-06-25T12:20:18.438Z,46.12
2023-06-25T12:22:45.697Z,46.10
2023-06-25T12:25:12.801Z,46.47
2023-06-25T12:27:41.409Z,46.86
2023-06-25T12:30:09.451Z,47.18
2023-06-25T12:32:38.202Z,47.44
2023-06-25T12:35:05.895Z,47.62
2023-06-25T12:37:32.836Z,47.89
2023-06-25T12:40:00.089Z,47.96
2023-06-25T12:42:27.036Z,48.26
2023-06-25T12:44:53.994Z,48.64
2023-06-25T12:47:20.956Z,48.90
2023-06-25T12:49:48.308Z,49.28
2023-06-25T12:52:15.389Z,49.46
2023-06-25T12:54:42.374Z,49.75
2023-06-25T12:57:10.253Z,49.96
2023-06-25T12:59:38.528Z,50.33
2023-06-25T13:02:06.698Z,50.24
2023-06-25T13:04:33.843Z,50.14
2023-06-25T13:07:02.437Z,50.29
2023-06-25T13:09:30.409Z,50.26
2023-06-25T13:11:57.639Z,50.50
2023-06-25T13:14:24.760Z,50.82
2023-06-25T13:16:52.924Z,51.21
2023-06-25T13:19:19.711Z,51.46
2023-06-25T13:21:47.377Z,51.67
2023-06-25T13:24:14.939Z,51.89
2023-06-25T13:26:45.320Z,51.88
2023-06-25T13:29:13.012Z,51.94
2023-06-25T13:31:40.614Z,52.04
2023-06-25T13:34:07.577Z,52.02
2023-06-25T13:36:34.658Z,52.33
2023-06-25T13:39:01.836Z,52.67
2023-06-25T13:41:29.701Z,52.97
2023-06-25T13:43:57.544Z,53.34
2023-06-25T13:46:24.556Z,53.35
2023-06-25T13:48:51.250Z,53.40
2023-06-25T13:51:18.124Z,53.55
2023-06-25T13:53:45.322Z,53.47
2023-06-25T13:56:12.594Z,53.54
2023-06-25T13:58:41.803Z,53.62
2023-06-25T14:01:08.830Z,53.53
2023-06-25T14:03:35.927Z,53.64
2023-06-25T14:06:03.371Z,53.75
2023-06-25T14:08:30.496Z,53.96
2023-06-25T14:10:57.427Z,53.94
2023-06-25T14:13:24.565Z,54.15
2023-06-25T14:16:01.949Z,54.06
2023-06-25T14:18:33.305Z,54.04
2023-06-25T14:21:00.152Z,53.94
2023-06-25T14:23:27.908Z,54.31
2023-06-25T14:25:56.595Z,54.44
2023-06-25T14:28:24.560Z,54.32
2023-06-25T14:30:53.658Z,54.61
2023-06-25T14:33:21.219Z,54.84
2023-06-25T14:35:48.059Z,55.02
2023-06-25T14:38:15.014Z,55.00
2023-06-25T14:40:42.313Z,54.87
2023-06-25T14:43:09.318Z,54.90
2023-06-25T14:45:36.995Z,54.88
2023-06-25T14:48:05.076Z,54.83
2023-06-25T14:50:33.787Z,54.89
2023-06-25T14:53:02.510Z,54.76
2023-06-25T14:55:31.196Z,54.88
2023-06-25T14:57:59.477Z,54.86
2023-06-25T15:00:26.437Z,55.09
2023-06-25T15:02:53.583Z,55.15
2023-06-25T15:05:20.820Z,55.10
2023-06-25T15:07:47.787Z,54.83
2023-06-25T15:10:14.646Z,54.64
2023-06-25T15:12:42.382Z,54.74
2023-06-25T15:15:09.934Z,54.74
2023-06-25T15:17:36.912Z,54.88
2023-06-25T15:20:06.695Z,54.86
2023-06-25T15:22:34.448Z,54.72
2023-06-25T15:25:01.395Z,54.96
2023-06-25T15:27:28.349Z,54.37
2023-06-25T15:29:55.278Z,53.59
2023-06-25T15:32:22.466Z,52.88
2023-06-25T15:34:49.582Z,52.57
2023-06-25T15:37:17.244Z,52.49
2023-06-25T15:39:44.213Z,52.22
2023-06-25T15:42:11.139Z,51.78
2023-06-25T15:44:38.282Z,51.54
2023-06-25T15:47:05.536Z,51.31
2023-06-25T15:49:32.385Z,51.37
2023-06-25T15:51:59.341Z,51.47
2023-06-25T15:54:26.869Z,51.63
2023-06-25T15:56:54.064Z,51.92
2023-06-25T15:59:21.507Z,51.99
2023-06-25T16:01:48.788Z,52.06
2023-06-25T16:04:15.986Z,52.00
2023-06-25T16:06:43.004Z,51.87
2023-06-25T16:09:10.090Z,52.00
2023-06-25T16:11:37.693Z,52.03
2023-06-25T16:14:04.588Z,52.12
2023-06-25T16:16:31.835Z,52.10
2023-06-25T16:19:17.171Z,52.06
2023-06-25T16:21:46.614Z,52.17
2023-06-25T16:24:13.675Z,52.12
2023-06-25T16:26:40.610Z,52.03
2023-06-25T16:29:07.766Z,52.10
2023-06-25T16:31:34.781Z,52.00
2023-06-25T16:34:01.953Z,52.08
2023-06-25T16:36:29.312Z,52.08
2023-06-25T16:38:56.256Z,52.14
2023-06-25T16:41:23.305Z,52.45
2023-06-25T16:43:50.255Z,52.55
2023-06-25T16:46:17.281Z,52.71
2023-06-25T16:48:44.553Z,52.90
2023-06-25T16:51:11.401Z,53.18
2023-06-25T16:53:38.228Z,53.23
2023-06-25T16:56:05.295Z,53.51
2023-06-25T16:58:32.323Z,53.70
2023-06-25T17:00:59.168Z,53.62
2023-06-25T17:03:26.403Z,53.42
2023-06-25T17:05:54.389Z,53.30
2023-06-25T17:08:23.288Z,53.01
2023-06-25T17:10:50.733Z,52.87
2023-06-25T17:13:18.099Z,52.45
2023-06-25T17:15:45.769Z,52.07
2023-06-25T17:18:15.152Z,51.71
2023-06-25T17:20:42.404Z,51.51
2023-06-25T17:23:09.482Z,51.15
2023-06-25T17:25:37.880Z,51.32
2023-06-25T17:28:05.282Z,51.47
2023-06-25T17:30:32.229Z,51.68
2023-06-25T17:32:59.340Z,51.91
2023-06-25T17:35:26.323Z,51.96
2023-06-25T17:37:53.482Z,52.31
2023-06-25T17:40:20.326Z,52.51
2023-06-25T17:42:48.402Z,52.64
2023-06-25T17:45:15.251Z,52.95
2023-06-25T17:47:44.592Z,53.29
2023-06-25T17:50:11.757Z,53.34
2023-06-25T17:52:39.146Z,53.55
2023-06-25T17:55:06.292Z,53.77
2023-06-25T17:57:33.272Z,53.89
2023-06-25T18:00:01.020Z,54.35
2023-06-25T18:02:28.599Z,54.62
2023-06-25T18:04:55.602Z,54.86
2023-06-25T18:07:22.788Z,55.09
2023-06-25T18:09:49.728Z,55.12
2023-06-25T18:12:17.768Z,55.34
2023-06-25T18:14:45.138Z,55.66
2023-06-25T18:17:12.172Z,55.74
2023-06-25T18:19:39.736Z,55.87
2023-06-25T18:22:06.773Z,55.98
2023-06-25T18:24:33.716Z,56.13
2023-06-25T18:27:00.690Z,56.24
2023-06-25T18:29:27.707Z,56.51
2023-06-25T18:31:54.655Z,56.66
2023-06-25T18:34:21.628Z,56.96
2023-06-25T18:36:48.557Z,57.08
2023-06-25T18:39:15.595Z,57.09
2023-06-25T18:41:42.669Z,57.40
2023-06-25T18:44:09.783Z,57.87
2023-06-25T18:46:37.914Z,58.01
2023-06-25T18:49:05.028Z,58.33
2023-06-25T18:51:32.153Z,58.25
2023-06-25T18:53:59.000Z,57.97
2023-06-25T18:56:26.259Z,58.23
2023-06-25T18:58:53.512Z,58.19
2023-06-25T19:01:20.649Z,58.18
2023-06-25T19:03:48.203Z,57.98
2023-06-25T19:06:15.277Z,57.78
2023-06-25T19:08:42.227Z,57.70
2023-06-25T19:11:10.110Z,57.81
2023-06-25T19:13:37.209Z,57.77
2023-06-25T19:16:05.101Z,57.47
2023-06-25T19:18:32.331Z,57.68
2023-06-25T19:20:59.295Z,57.12
2023-06-25T19:23:29.991Z,56.81
2023-06-25T19:26:02.146Z,57.53
2023-06-25T19:28:29.022Z,57.79
2023-06-25T19:30:55.903Z,57.07
2023-06-25T19:33:23.830Z,56.95
2023-06-25T19:35:50.794Z,56.28
2023-06-25T19:38:17.735Z,56.44
2023-06-25T19:40:44.971Z,56.74
2023-06-25T19:43:12.201Z,56.84
2023-06-25T19:45:39.066Z,56.54
2023-06-25T19:48:06.290Z,56.54
2023-06-25T19:50:33.524Z,56.07
2023-06-25T19:53:00.714Z,55.87
2023-06-25T19:55:27.557Z,55.94
2023-06-25T19:57:54.613Z,56.03
2023-06-25T20:00:21.660Z,56.14
2023-06-25T20:02:48.656Z,56.51
2023-06-25T20:05:18.529Z,56.35
2023-06-25T20:07:48.855Z,55.52
2023-06-25T20:10:16.590Z,54.63
2023-06-25T20:12:44.072Z,54.16
2023-06-25T20:15:11.639Z,54.47
2023-06-25T20:17:38.694Z,54.78
2023-06-25T20:20:06.201Z,55.37
2023-06-25T20:22:32.963Z,55.74
2023-06-25T20:24:59.815Z,56.23
2023-06-25T20:27:26.878Z,55.81
2023-06-25T20:29:53.894Z,54.82
2023-06-25T20:32:20.808Z,54.39
2023-06-25T20:34:47.889Z,54.49
2023-06-25T20:37:16.305Z,54.74
2023-06-25T20:39:43.212Z,54.50
2023-06-25T20:42:10.156Z,54.06
2023-06-25T20:44:37.613Z,54.13
2023-06-25T20:47:05.682Z,54.65
2023-06-25T20:49:32.561Z,54.93
2023-06-25T20:52:00.186Z,55.42
2023-06-25T20:54:28.368Z,55.27
2023-06-25T20:56:55.624Z,56.17
2023-06-25T20:59:22.567Z,56.81
2023-06-25T21:02:00.257Z,57.14
2023-06-25T21:04:27.198Z,57.49
2023-06-25T21:06:53.925Z,57.58
2023-06-25T21:09:20.685Z,57.47
2023-06-25T21:11:47.722Z,57.70
2023-06-25T21:14:14.566Z,58.33
2023-06-25T21:16:41.627Z,58.47
2023-06-25T21:19:08.678Z,58.14
2023-06-25T21:21:35.827Z,58.34
2023-06-25T21:24:03.165Z,58.48
2023-06-25T21:26:30.127Z,58.13
2023-06-25T21:28:57.363Z,58.08
2023-06-25T21:31:24.350Z,57.56
2023-06-25T21:33:51.680Z,57.19
2023-06-25T21:36:18.612Z,57.29
2023-06-25T21:38:45.558Z,57.78
2023-06-25T21:41:12.612Z,58.28
2023-06-25T21:43:39.648Z,59.01
2023-06-25T21:46:06.597Z,59.64
2023-06-25T21:48:34.257Z,60.23
2023-06-25T21:51:01.216Z,60.56
2023-06-25T21:53:28.350Z,60.10
2023-06-25T21:55:55.984Z,59.40
2023-06-25T21:58:24.304Z,59.62
2023-06-25T22:00:51.398Z,60.40
2023-06-25T22:03:19.277Z,61.29
2023-06-25T22:05:46.562Z,61.74
2023-06-25T22:08:13.630Z,62.44
2023-06-25T22:10:41.259Z,63.26
2023-06-25T22:13:08.469Z,63.97
2023-06-25T22:15:36.181Z,64.71
2023-06-25T22:18:04.046Z,65.03
2023-06-25T22:20:31.136Z,65.13
2023-06-25T22:22:58.434Z,65.54
2023-06-25T22:25:26.132Z,65.94
2023-06-25T22:27:53.660Z,65.92
2023-06-25T22:30:21.066Z,66.30
2023-06-25T22:32:48.465Z,66.76
2023-06-25T22:35:15.445Z,66.88
2023-06-25T22:37:42.258Z,66.74
2023-06-25T22:40:10.164Z,66.63
2023-06-25T22:42:37.696Z,66.69
2023-06-25T22:45:05.476Z,66.37
2023-06-25T22:47:32.983Z,66.26
2023-06-25T22:50:00.088Z,66.23
2023-06-25T22:52:27.102Z,66.28
2023-06-25T22:54:54.358Z,66.60
2023-06-25T22:57:21.736Z,66.44
2023-06-25T22:59:48.663Z,66.42
2023-06-25T23:02:15.696Z,66.31
2023-06-25T23:04:45.541Z,66.34
2023-06-25T23:07:12.783Z,66.20
2023-06-25T23:09:40.342Z,66.47
2023-06-25T23:12:07.475Z,66.53
2023-06-25T23:14:34.734Z,66.38
2023-06-25T23:17:01.874Z,66.39
2023-06-25T23:19:33.833Z,66.23
2023-06-25T23:22:03.027Z,66.23
2023-06-25T23:24:38.087Z,66.16
2023-06-25T23:27:08.699Z,66.23
2023-06-25T23:29:35.966Z,66.46
2023-06-25T23:32:03.723Z,66.52
2023-06-25T23:34:33.620Z,66.40
2023-06-25T23:37:01.506Z,66.31
2023-06-25T23:39:33.655Z,66.32
2023-06-25T23:42:00.624Z,66.42
2023-06-25T23:44:27.552Z,66.57
2023-06-25T23:46:54.602Z,66.79
2023-06-25T23:49:21.928Z,66.64
2023-06-25T23:51:49.203Z,66.88
2023-06-25T23:54:16.041Z,66.91
2023-06-25T23:56:43.111Z,67.16
2023-06-25T23:59:10.041Z,67.25
